Time;durP1;ratioP1;P1;durP2;ratioP2;P2;SDS_P1;SDS_P2;PMS_P1;PMS_P2;Temp;Humidity;BMP_temperature;BMP_pressure;BME280_temperature;BME280_humidity;BME280_pressure;Samples;Min_cycle;Max_cycle;Signal;HPM_P1;HPM_P2
2022/07/08 00:00:08;;;;;;;2.00;1.80;;;19.60;40.30;;;;;;10437970;28;20239;-70
2022/07/08 00:05:11;;;;;;;2.60;1.50;;;19.60;40.90;;;;;;10437882;28;20228;-70
2022/07/08 00:10:14;;;;;;;2.20;1.70;;;19.60;40.40;;;;;;10434706;28;20245;-70
2022/07/08 00:15:20;;;;;;;1.90;1.80;;;19.70;40.50;;;;;;10437894;28;20709;-70
2022/07/08 00:20:24;;;;;;;2.17;2.00;;;19.60;40.70;;;;;;10426475;28;20229;-70
2022/07/08 00:25:27;;;;;;;2.30;2.10;;;19.60;40.40;;;;;;10427379;28;20229;-70
2022/07/08 00:30:32;;;;;;;2.63;2.43;;;19.50;40.50;;;;;;10433577;28;21109;-70
2022/07/08 00:35:35;;;;;;;2.60;2.20;;;19.40;41.00;;;;;;10423488;28;20245;-69
2022/07/08 00:40:38;;;;;;;2.30;2.10;;;19.30;40.70;;;;;;10434340;28;20233;-70
2022/07/08 00:45:43;;;;;;;2.00;1.90;;;19.30;40.90;;;;;;10431216;28;20877;-71
2022/07/08 00:50:46;;;;;;;1.50;1.37;;;19.20;41.40;;;;;;10430194;28;20228;-70
2022/07/08 00:55:49;;;;;;;3.73;1.47;;;19.10;40.50;;;;;;10431935;28;20299;-70
2022/07/08 01:00:54;;;;;;;2.30;1.27;;;19.00;39.60;;;;;;10434831;28;20224;-69
2022/07/08 01:05:57;;;;;;;4.20;1.60;;;18.90;39.80;;;;;;10428919;28;20706;-70
2022/07/08 01:11:01;;;;;;;3.23;1.53;;;18.70;38.70;;;;;;10430179;28;20230;-70
2022/07/08 01:16:07;;;;;;;3.43;1.30;;;18.50;39.00;;;;;;10433431;28;20709;-70
2022/07/08 01:21:12;;;;;;;3.47;1.47;;;18.40;39.30;;;;;;10430711;28;20236;-70
2022/07/08 01:26:15;;;;;;;3.43;1.33;;;18.30;38.70;;;;;;10426242;28;20228;-70
2022/07/08 01:31:18;;;;;;;4.43;1.70;;;18.30;38.60;;;;;;10430604;28;20263;-70
2022/07/08 01:36:23;;;;;;;1.87;1.00;;;18.10;38.40;;;;;;10432326;28;20270;-70
2022/07/08 01:41:26;;;;;;;3.20;1.60;;;18.10;38.60;;;;;;10432424;28;20236;-71
2022/07/08 01:46:29;;;;;;;4.13;1.57;;;18.10;38.40;;;;;;10428181;28;20599;-70
2022/07/08 01:51:34;;;;;;;4.23;1.53;;;18.00;38.10;;;;;;10437435;28;20267;-71
2022/07/08 01:56:37;;;;;;;2.67;1.27;;;17.90;38.50;;;;;;10430986;28;20254;-70
2022/07/08 02:01:40;;;;;;;1.43;1.20;;;17.80;38.70;;;;;;10434644;28;20240;-70
2022/07/08 02:06:45;;;;;;;2.77;1.30;;;17.80;38.90;;;;;;10431449;28;20240;-70
2022/07/08 02:17:09;;;;;;;2.67;1.40;;;17.90;38.60;;;;;;10428869;28;20778;-70
2022/07/08 02:22:14;;;;;;;3.30;1.40;;;17.90;38.60;;;;;;10433481;28;20251;-71
2022/07/08 02:27:18;;;;;;;2.77;1.30;;;18.00;38.10;;;;;;10436014;28;20218;-71
2022/07/08 02:32:21;;;;;;;3.33;1.10;;;17.90;38.20;;;;;;10435789;28;20234;-71
2022/07/08 02:37:26;;;;;;;5.33;1.37;;;18.00;38.30;;;;;;10433814;28;20264;-71
2022/07/08 02:42:29;;;;;;;2.63;1.33;;;18.00;38.00;;;;;;10435918;28;20267;-70
2022/07/08 02:47:32;;;;;;;3.33;1.40;;;18.00;37.90;;;;;;10432268;28;20234;-71
2022/07/08 02:52:37;;;;;;;4.70;1.33;;;17.80;37.70;;;;;;10431114;28;20228;-71
2022/07/08 02:57:40;;;;;;;3.90;1.33;;;17.80;38.10;;;;;;10438768;28;20232;-71
2022/07/08 03:02:43;;;;;;;3.33;1.20;;;17.80;37.80;;;;;;10434670;28;20225;-70
2022/07/08 03:07:48;;;;;;;2.70;1.17;;;17.80;38.70;;;;;;10442261;28;20233;-70
2022/07/08 03:12:51;;;;;;;3.30;1.20;;;17.70;37.90;;;;;;10425826;28;20236;-71
2022/07/08 03:17:54;;;;;;;7.07;1.53;;;17.70;38.00;;;;;;10436466;28;20934;-71
2022/07/08 03:22:59;;;;;;;3.80;1.20;;;17.70;38.20;;;;;;10437471;28;20221;-70
2022/07/08 03:28:03;;;;;;;2.67;1.10;;;17.80;38.20;;;;;;10435731;28;20217;-69
2022/07/08 03:33:06;;;;;;;3.50;1.30;;;17.80;38.20;;;;;;10441987;28;20753;-70
2022/07/08 03:38:11;;;;;;;3.60;1.20;;;17.80;37.90;;;;;;10438399;28;20217;-71
2022/07/08 03:43:14;;;;;;;3.53;1.47;;;17.80;37.90;;;;;;10437195;28;20241;-71
2022/07/08 03:48:17;;;;;;;3.30;1.37;;;17.80;37.70;;;;;;10433115;28;20228;-71
2022/07/08 03:53:22;;;;;;;3.87;1.40;;;17.70;37.30;;;;;;10438459;28;20224;-71
2022/07/08 03:58:25;;;;;;;3.30;1.33;;;17.60;37.30;;;;;;10433457;28;20229;-69
2022/07/08 04:03:28;;;;;;;5.87;1.30;;;17.50;37.30;;;;;;10429855;28;21136;-71
2022/07/08 04:08:33;;;;;;;3.53;1.37;;;17.40;37.40;;;;;;10421389;28;20244;-70
2022/07/08 04:13:37;;;;;;;2.57;1.50;;;17.30;37.60;;;;;;10426072;28;20225;-71
2022/07/08 04:18:41;;;;;;;2.67;1.20;;;17.20;37.50;;;;;;10426028;28;20396;-71
2022/07/08 04:23:46;;;;;;;3.80;1.23;;;17.20;38.80;;;;;;10423580;28;20712;-71
2022/07/08 04:28:49;;;;;;;3.13;1.33;;;17.20;38.10;;;;;;10433106;28;20876;-71
2022/07/08 04:33:53;;;;;;;3.60;1.30;;;17.30;38.20;;;;;;10422301;28;20225;-70
2022/07/08 04:38:58;;;;;;;4.03;1.40;;;17.30;38.00;;;;;;10436351;28;20228;-70
2022/07/08 04:44:01;;;;;;;4.50;1.40;;;17.20;37.90;;;;;;10433500;28;20231;-71
2022/07/08 04:49:04;;;;;;;4.63;1.40;;;17.20;37.90;;;;;;10440640;28;20763;-71
2022/07/08 04:54:09;;;;;;;4.53;1.30;;;17.20;38.10;;;;;;10440269;28;20602;-71
2022/07/08 04:59:12;;;;;;;3.03;1.43;;;17.10;38.20;;;;;;10433625;28;20803;-71
2022/07/08 05:04:15;;;;;;;4.07;1.50;;;17.10;38.10;;;;;;10434550;28;20225;-70
2022/07/08 05:09:20;;;;;;;5.80;1.70;;;17.10;38.10;;;;;;10437023;28;20229;-71
2022/07/08 05:14:23;;;;;;;5.57;1.30;;;17.00;38.30;;;;;;10435785;28;20239;-72
2022/07/08 05:19:26;;;;;;;3.63;1.30;;;17.00;38.30;;;;;;10434368;28;20264;-72
2022/07/08 05:24:31;;;;;;;5.93;1.50;;;17.00;38.50;;;;;;10434843;28;20228;-72
2022/07/08 05:29:34;;;;;;;2.80;1.27;;;17.00;38.90;;;;;;10424713;28;20234;-72
2022/07/08 05:34:38;;;;;;;2.20;1.30;;;17.10;38.90;;;;;;10434562;28;20231;-72
2022/07/08 05:39:43;;;;;;;2.70;1.27;;;17.20;38.80;;;;;;10434590;28;20229;-72
2022/07/08 05:44:46;;;;;;;5.70;1.80;;;17.30;38.90;;;;;;10432631;28;20241;-72
2022/07/08 05:49:50;;;;;;;4.07;1.60;;;17.40;38.80;;;;;;10431961;28;20224;-72
2022/07/08 05:54:54;;;;;;;2.73;1.23;;;17.40;38.30;;;;;;10431973;28;20308;-72
2022/07/08 05:59:58;;;;;;;5.40;1.50;;;17.50;38.50;;;;;;10429878;28;20243;-72
2022/07/08 06:05:01;;;;;;;2.83;1.40;;;17.50;38.60;;;;;;10437350;28;20231;-73
2022/07/08 06:10:07;;;;;;;4.63;1.60;;;17.50;38.40;;;;;;10422469;28;21056;-73
2022/07/08 06:15:13;;;;;;;4.07;1.50;;;17.60;38.40;;;;;;10422823;28;20312;-72
2022/07/08 06:20:17;;;;;;;2.70;1.53;;;17.60;38.30;;;;;;10429405;28;20294;-72
2022/07/08 06:25:25;;;;;;;2.57;1.37;;;17.60;38.40;;;;;;10426801;28;20225;-72
2022/07/08 06:30:28;;;;;;;3.77;1.40;;;17.60;38.30;;;;;;10438945;28;20734;-72
2022/07/08 06:35:32;;;;;;;2.70;1.30;;;17.60;38.50;;;;;;10436630;28;20697;-73
2022/07/08 06:40:36;;;;;;;3.23;1.30;;;17.70;38.50;;;;;;10438205;28;20268;-73
2022/07/08 06:45:40;;;;;;;2.83;1.40;;;17.70;38.30;;;;;;10436806;28;20231;-72
2022/07/08 06:50:43;;;;;;;3.37;1.30;;;17.80;38.40;;;;;;10434628;28;20232;-72
2022/07/08 06:55:47;;;;;;;5.33;1.37;;;17.80;38.10;;;;;;10430510;28;20978;-73
2022/07/08 07:00:51;;;;;;;3.17;1.50;;;17.80;37.90;;;;;;10439876;28;20659;-73
2022/07/08 07:05:54;;;;;;;4.27;1.57;;;17.90;37.90;;;;;;10429823;28;20228;-72
2022/07/08 07:10:58;;;;;;;3.90;1.40;;;18.00;37.80;;;;;;10430917;28;20232;-73
2022/07/08 07:16:01;;;;;;;3.17;1.70;;;18.00;37.60;;;;;;10438643;28;20221;-74
2022/07/08 07:21:05;;;;;;;3.40;1.50;;;18.10;37.60;;;;;;10438605;28;20702;-74
2022/07/08 07:26:10;;;;;;;3.80;1.60;;;18.20;38.30;;;;;;10434658;28;20575;-73
2022/07/08 07:31:13;;;;;;;5.50;1.50;;;18.20;37.40;;;;;;10433802;28;20228;-73
2022/07/08 07:36:16;;;;;;;4.17;1.27;;;18.30;37.30;;;;;;10436029;28;20237;-73
2022/07/08 07:41:21;;;;;;;3.03;1.20;;;18.40;36.90;;;;;;10435085;28;20236;-74
2022/07/08 07:46:24;;;;;;;3.27;1.10;;;18.50;36.70;;;;;;10436522;28;20229;-73
2022/07/08 07:51:28;;;;;;;2.57;1.27;;;18.60;36.50;;;;;;10436129;28;20232;-72
2022/07/08 07:56:33;;;;;;;3.07;1.20;;;18.70;36.40;;;;;;10436759;28;20233;-74
2022/07/08 08:01:36;;;;;;;3.17;1.30;;;18.80;35.80;;;;;;10437798;28;20271;-73
2022/07/08 08:06:39;;;;;;;2.60;1.33;;;18.90;36.10;;;;;;10436815;28;20657;-72
2022/07/08 08:11:44;;;;;;;3.17;1.13;;;19.00;35.60;;;;;;10433522;28;20225;-74
2022/07/08 08:16:47;;;;;;;2.60;1.27;;;19.00;34.60;;;;;;10437585;28;20228;-73
2022/07/08 08:21:51;;;;;;;1.93;1.00;;;19.10;35.80;;;;;;10430480;28;20217;-74
2022/07/08 08:26:55;;;;;;;3.53;1.20;;;19.10;34.60;;;;;;10432167;28;20600;-73
2022/07/08 08:31:59;;;;;;;2.43;1.07;;;19.20;34.00;;;;;;10435607;28;20238;-73
2022/07/08 08:37:02;;;;;;;2.37;1.27;;;19.20;34.50;;;;;;10431308;28;20240;-73
2022/07/08 08:42:08;;;;;;;2.07;1.13;;;19.20;34.40;;;;;;10434052;28;20350;-74
2022/07/08 08:47:15;;;;;;;1.93;1.07;;;19.30;33.60;;;;;;10432376;28;20232;-74
2022/07/08 08:52:18;;;;;;;3.83;1.40;;;19.30;32.90;;;;;;10432734;28;20229;-73
2022/07/08 08:57:22;;;;;;;2.77;1.10;;;19.40;34.00;;;;;;10434264;28;20254;-74
2022/07/08 09:02:26;;;;;;;1.93;1.10;;;19.50;33.30;;;;;;10426554;28;20234;-74
2022/07/08 09:07:30;;;;;;;2.57;1.30;;;19.60;33.50;;;;;;10431399;28;21138;-73
2022/07/08 09:12:34;;;;;;;3.30;1.20;;;19.60;33.10;;;;;;10421835;28;20226;-74
2022/07/08 09:17:44;;;;;;;3.23;1.50;;;19.60;32.30;;;;;;10434108;28;20283;-73
2022/07/08 09:22:47;;;;;;;4.27;1.17;;;19.60;31.80;;;;;;10430935;28;20231;-74
2022/07/08 09:27:52;;;;;;;4.13;1.10;;;19.70;33.20;;;;;;10430852;28;20225;-74
2022/07/08 09:32:58;;;;;;;3.17;1.13;;;19.80;31.60;;;;;;10433455;28;20229;-73
2022/07/08 09:38:03;;;;;;;3.50;1.30;;;19.90;31.90;;;;;;10430761;28;21050;-73
2022/07/08 09:43:14;;;;;;;4.67;1.40;;;19.90;32.10;;;;;;10430235;28;20227;-73
2022/07/08 09:48:18;;;;;;;2.10;1.20;;;20.00;30.10;;;;;;10429213;28;20228;-74
2022/07/08 09:53:23;;;;;;;3.83;1.23;;;20.10;31.70;;;;;;10427217;28;21274;-71
2022/07/08 09:58:29;;;;;;;2.67;1.43;;;20.20;31.40;;;;;;10430430;28;20236;-72
2022/07/08 10:03:35;;;;;;;2.70;1.20;;;20.20;31.20;;;;;;10438775;28;20764;-72
2022/07/08 10:08:39;;;;;;;4.10;1.30;;;20.30;31.60;;;;;;10436811;28;20311;-72
2022/07/08 10:13:45;;;;;;;2.83;1.10;;;20.40;31.20;;;;;;10434653;28;20221;-72
2022/07/08 10:18:52;;;;;;;2.50;1.10;;;20.50;30.20;;;;;;10436133;28;20225;-72
2022/07/08 10:23:56;;;;;;;1.83;1.10;;;20.60;30.00;;;;;;10436296;28;20221;-72
2022/07/08 10:29:06;;;;;;;1.90;1.30;;;20.70;30.60;;;;;;10437356;28;20228;-72
2022/07/08 10:34:11;;;;;;;2.10;1.20;;;20.80;29.50;;;;;;10431151;28;20327;-70
2022/07/08 10:39:14;;;;;;;3.13;1.10;;;20.80;30.10;;;;;;10427152;28;20581;-70
2022/07/08 10:44:39;;;;;;;1.93;1.00;;;20.90;30.00;;;;;;10417036;28;20229;-70
2022/07/08 10:49:43;;;;;;;2.40;1.03;;;20.90;29.70;;;;;;10425722;28;20246;-70
2022/07/08 10:54:46;;;;;;;3.43;1.23;;;20.90;29.80;;;;;;10433246;28;20225;-70
2022/07/08 11:00:07;;;;;;;1.70;1.07;;;20.90;29.70;;;;;;10420421;28;20221;-72
2022/07/08 11:05:34;;;;;;;2.73;1.10;;;20.80;29.00;;;;;;10425249;28;20220;-71
2022/07/08 11:10:39;;;;;;;2.60;1.00;;;21.00;29.40;;;;;;10422837;28;20321;-71
2022/07/08 11:15:43;;;;;;;3.20;1.30;;;21.20;29.90;;;;;;10425017;28;20224;-70
2022/07/08 11:20:47;;;;;;;2.13;1.20;;;21.30;28.90;;;;;;10430378;28;20263;-71
2022/07/08 11:25:55;;;;;;;3.73;1.00;;;21.40;29.20;;;;;;10433462;28;20602;-71
2022/07/08 11:31:01;;;;;;;2.77;1.30;;;21.40;29.30;;;;;;10429718;28;20717;-71
2022/07/08 11:36:13;;;;;;;2.37;1.20;;;21.40;28.70;;;;;;10429219;28;20216;-70
2022/07/08 11:41:19;;;;;;;3.13;1.23;;;21.60;28.20;;;;;;10433778;28;20721;-70
2022/07/08 11:46:24;;;;;;;2.50;1.20;;;21.80;28.80;;;;;;10436134;28;20321;-70
2022/07/08 11:51:27;;;;;;;1.60;0.90;;;21.90;27.90;;;;;;10434919;28;20233;-70
2022/07/08 11:56:32;;;;;;;1.60;1.10;;;21.90;28.10;;;;;;10428717;28;20243;-71
2022/07/08 12:01:38;;;;;;;2.40;0.97;;;22.00;27.30;;;;;;10431383;28;20817;-71
2022/07/08 12:06:46;;;;;;;2.60;1.17;;;22.10;27.60;;;;;;10433775;28;20224;-72
2022/07/08 12:11:51;;;;;;;1.77;1.20;;;22.20;27.90;;;;;;10433062;28;20232;-72
2022/07/08 12:16:56;;;;;;;2.57;1.00;;;22.30;28.00;;;;;;10428649;28;20221;-72
2022/07/08 12:22:01;;;;;;;2.80;1.23;;;22.40;27.40;;;;;;10434368;28;20230;-72
2022/07/08 12:27:07;;;;;;;1.60;0.97;;;22.50;27.40;;;;;;10433205;28;20222;-72
2022/07/08 12:32:12;;;;;;;2.33;1.00;;;22.60;27.10;;;;;;10429266;28;20225;-72
2022/07/08 12:37:17;;;;;;;1.20;1.10;;;22.50;27.00;;;;;;10435652;28;20237;-72
2022/07/08 12:42:25;;;;;;;1.43;1.30;;;22.50;27.70;;;;;;10437035;28;20225;-72
2022/07/08 12:47:30;;;;;;;1.93;1.30;;;22.50;26.70;;;;;;10434815;28;20220;-72
2022/07/08 12:52:33;;;;;;;3.77;1.30;;;22.70;27.80;;;;;;10434137;28;20267;-72
2022/07/08 12:57:36;;;;;;;2.13;1.30;;;22.80;27.60;;;;;;10434846;28;20232;-72
2022/07/08 13:02:42;;;;;;;1.30;1.20;;;23.00;27.30;;;;;;10430576;28;20221;-70
2022/07/08 13:07:46;;;;;;;2.60;1.37;;;23.10;27.00;;;;;;10433457;28;20656;-72
2022/07/08 13:12:49;;;;;;;1.93;1.30;;;23.20;27.50;;;;;;10431020;28;20233;-72
2022/07/08 13:17:54;;;;;;;1.27;1.17;;;23.30;27.20;;;;;;10432371;28;20753;-72
2022/07/08 13:22:57;;;;;;;1.97;1.20;;;23.30;26.40;;;;;;10430859;28;20659;-72
2022/07/08 13:28:00;;;;;;;2.73;1.27;;;23.40;27.20;;;;;;10433175;28;20233;-72
2022/07/08 13:33:05;;;;;;;1.43;1.10;;;23.40;26.50;;;;;;10434752;28;20243;-72
2022/07/08 13:38:09;;;;;;;2.90;1.27;;;23.40;26.00;;;;;;10429472;28;20225;-72
2022/07/08 13:43:12;;;;;;;3.13;1.80;;;23.40;26.60;;;;;;10432713;28;20229;-72
2022/07/08 13:48:17;;;;;;;1.23;1.13;;;23.40;26.50;;;;;;10431731;28;20226;-72
2022/07/08 13:53:20;;;;;;;2.87;1.00;;;23.30;26.00;;;;;;10434254;28;20244;-72
2022/07/08 13:58:24;;;;;;;1.90;1.00;;;23.30;26.50;;;;;;10431676;28;20887;-72
2022/07/08 14:03:28;;;;;;;2.00;1.10;;;23.20;26.50;;;;;;10435335;28;21267;-72
2022/07/08 14:08:32;;;;;;;2.30;1.03;;;23.20;26.10;;;;;;10437961;28;20786;-72
2022/07/08 14:13:43;;;;;;;2.83;1.20;;;23.30;26.50;;;;;;10429262;28;20279;-72
2022/07/08 14:18:48;;;;;;;1.03;0.90;;;23.30;26.40;;;;;;10435009;28;20233;-72
2022/07/08 14:23:52;;;;;;;1.97;1.00;;;23.30;26.00;;;;;;10430680;28;20299;-70
2022/07/08 14:28:56;;;;;;;1.50;1.00;;;23.40;26.20;;;;;;10426844;28;20225;-71
2022/07/08 14:34:00;;;;;;;1.13;1.00;;;23.30;26.10;;;;;;10432305;28;20230;-72
2022/07/08 14:39:04;;;;;;;1.43;1.10;;;23.30;25.80;;;;;;10432429;28;20224;-72
2022/07/08 14:44:08;;;;;;;1.73;1.00;;;23.30;26.20;;;;;;10444251;28;20236;-73
2022/07/08 14:49:13;;;;;;;1.57;1.17;;;23.40;26.50;;;;;;10438429;28;20255;-73
2022/07/08 14:54:16;;;;;;;1.83;1.03;;;23.40;26.10;;;;;;10444757;28;20231;-73
2022/07/08 14:59:20;;;;;;;1.73;1.20;;;23.50;25.80;;;;;;10448367;28;20772;-73
2022/07/08 15:04:25;;;;;;;1.30;1.20;;;23.50;25.70;;;;;;10442085;28;20234;-74
2022/07/08 15:09:28;;;;;;;1.67;1.20;;;23.50;25.30;;;;;;10442529;28;20229;-73
2022/07/08 15:14:32;;;;;;;1.67;1.10;;;23.60;25.40;;;;;;10440614;28;20229;-75
2022/07/08 15:19:36;;;;;;;1.23;1.10;;;23.60;25.40;;;;;;10436499;28;20796;-74
2022/07/08 15:24:40;;;;;;;1.50;0.97;;;23.80;25.10;;;;;;10443451;28;20235;-74
2022/07/08 15:29:43;;;;;;;1.73;1.10;;;23.80;25.80;;;;;;10443359;28;20236;-74
2022/07/08 15:34:47;;;;;;;1.17;1.07;;;23.90;25.50;;;;;;10437042;28;20718;-74
2022/07/08 15:39:51;;;;;;;1.00;0.93;;;23.90;25.10;;;;;;10429748;28;20710;-74
2022/07/08 15:44:55;;;;;;;2.37;1.00;;;24.10;25.30;;;;;;10436551;28;20262;-74
2022/07/08 15:49:59;;;;;;;0.83;0.83;;;24.20;24.80;;;;;;10429677;28;20601;-75
2022/07/08 15:55:02;;;;;;;1.50;1.07;;;24.20;24.30;;;;;;10431010;28;20220;-74
2022/07/08 16:00:07;;;;;;;1.40;1.10;;;24.20;24.60;;;;;;10440312;28;20225;-74
2022/07/08 16:05:12;;;;;;;1.23;0.97;;;24.30;24.60;;;;;;10439347;28;20221;-74
2022/07/08 16:10:15;;;;;;;2.17;1.20;;;24.30;24.30;;;;;;10427654;28;20225;-74
2022/07/08 16:15:18;;;;;;;2.73;1.10;;;24.40;24.50;;;;;;10437955;28;20231;-74
2022/07/08 16:20:23;;;;;;;1.70;1.20;;;24.50;24.70;;;;;;10432607;28;20728;-74
2022/07/08 16:25:27;;;;;;;1.77;0.90;;;24.50;24.00;;;;;;10433598;28;20310;-73
2022/07/08 16:30:31;;;;;;;1.67;0.73;;;24.50;24.30;;;;;;10425146;28;20912;-74
2022/07/08 16:35:36;;;;;;;1.90;1.00;;;24.60;24.10;;;;;;10435957;28;20605;-74
2022/07/08 16:40:39;;;;;;;1.93;1.00;;;24.60;24.20;;;;;;10437328;28;20951;-73
2022/07/08 16:45:42;;;;;;;1.23;1.00;;;24.70;24.40;;;;;;10426916;28;20231;-74
2022/07/08 16:50:47;;;;;;;2.43;1.40;;;24.70;24.10;;;;;;10420733;28;20689;-72
2022/07/08 16:55:51;;;;;;;1.20;0.80;;;24.70;23.90;;;;;;10434658;28;20316;-74
2022/07/08 17:00:54;;;;;;;1.03;0.93;;;24.70;24.20;;;;;;10430754;28;20233;-73
2022/07/08 17:05:58;;;;;;;0.80;0.80;;;24.70;24.00;;;;;;10430971;28;20247;-74
2022/07/08 17:11:02;;;;;;;2.10;1.10;;;24.70;24.10;;;;;;10432789;28;20283;-73
2022/07/08 17:16:05;;;;;;;2.27;1.10;;;24.70;24.20;;;;;;10437412;28;20696;-74
2022/07/08 17:21:12;;;;;;;1.77;1.00;;;24.70;24.10;;;;;;10431984;28;20230;-74
2022/07/08 17:26:15;;;;;;;2.20;1.00;;;24.80;23.50;;;;;;10433368;28;20227;-74
2022/07/08 17:31:21;;;;;;;1.30;1.10;;;24.90;24.00;;;;;;10436757;28;20260;-74
2022/07/08 17:36:26;;;;;;;0.97;0.80;;;24.90;23.60;;;;;;10435237;28;20697;-74
2022/07/08 17:41:29;;;;;;;1.43;1.10;;;24.80;23.20;;;;;;10434849;28;20243;-74
2022/07/08 17:46:32;;;;;;;1.30;1.00;;;24.70;23.50;;;;;;10437483;28;20227;-74
2022/07/08 17:51:37;;;;;;;1.53;0.90;;;24.70;23.80;;;;;;10431915;28;20221;-74
2022/07/08 17:56:40;;;;;;;2.73;1.00;;;24.60;23.70;;;;;;10432814;28;20970;-74
2022/07/08 18:01:44;;;;;;;2.50;1.03;;;24.60;23.90;;;;;;10431049;28;20236;-74
2022/07/08 18:06:49;;;;;;;2.43;1.20;;;24.50;24.00;;;;;;10432235;28;20320;-73
2022/07/08 18:11:52;;;;;;;1.87;1.03;;;24.50;23.60;;;;;;10427077;28;20232;-74
2022/07/08 18:16:56;;;;;;;1.37;1.00;;;24.60;24.00;;;;;;10419572;28;20216;-75
2022/07/08 18:22:01;;;;;;;1.10;0.80;;;24.50;23.80;;;;;;10425510;28;20274;-74
2022/07/08 18:27:05;;;;;;;3.00;1.10;;;24.50;23.90;;;;;;10432555;28;20268;-74
2022/07/08 18:32:09;;;;;;;1.13;0.90;;;24.40;24.10;;;;;;10429824;28;20239;-74
2022/07/08 18:37:15;;;;;;;1.10;1.00;;;24.40;24.10;;;;;;10426943;28;20340;-75
2022/07/08 18:42:19;;;;;;;1.53;1.10;;;24.30;23.80;;;;;;10429212;28;20671;-74
2022/07/08 18:47:22;;;;;;;1.30;1.20;;;24.30;24.00;;;;;;10429197;28;20278;-74
2022/07/08 18:52:27;;;;;;;2.33;1.30;;;24.20;24.20;;;;;;10422071;28;20240;-73
2022/07/08 18:57:30;;;;;;;2.00;1.10;;;24.10;24.10;;;;;;10427388;28;20307;-71
2022/07/08 19:02:33;;;;;;;1.40;1.30;;;24.10;24.60;;;;;;10431772;28;20256;-74
2022/07/08 19:07:38;;;;;;;1.30;1.20;;;24.00;24.70;;;;;;10424866;28;20266;-72
2022/07/08 19:12:42;;;;;;;2.63;1.20;;;24.00;24.80;;;;;;10428246;28;20228;-70
2022/07/08 19:17:45;;;;;;;1.20;1.10;;;24.00;25.40;;;;;;10429528;28;20779;-71
2022/07/08 19:22:50;;;;;;;1.10;1.00;;;24.00;25.70;;;;;;10430986;28;20303;-73
2022/07/08 19:27:54;;;;;;;0.97;0.90;;;23.90;26.00;;;;;;10429970;28;20233;-73
2022/07/08 19:32:57;;;;;;;1.93;1.33;;;23.80;26.00;;;;;;10430055;28;20224;-72
2022/07/08 19:38:02;;;;;;;1.50;1.40;;;23.80;26.00;;;;;;10426606;28;20233;-71
2022/07/08 19:43:05;;;;;;;2.13;1.67;;;23.70;26.00;;;;;;10424638;28;20220;-72
2022/07/08 19:48:09;;;;;;;1.20;1.10;;;23.60;25.90;;;;;;10426503;28;20229;-72
2022/07/08 19:53:14;;;;;;;1.83;1.50;;;23.50;25.90;;;;;;10425888;28;20664;-72
2022/07/08 19:58:17;;;;;;;1.67;1.53;;;23.40;26.10;;;;;;10429189;28;20232;-72
2022/07/08 20:03:20;;;;;;;1.30;1.20;;;23.30;26.10;;;;;;10428840;28;20217;-72
2022/07/08 20:08:25;;;;;;;1.50;1.27;;;23.20;26.20;;;;;;10429279;28;20260;-72
2022/07/08 20:13:28;;;;;;;2.13;1.60;;;23.20;26.50;;;;;;10435326;28;20229;-72
2022/07/08 20:18:31;;;;;;;2.33;1.67;;;22.90;26.20;;;;;;10431700;28;20221;-72
2022/07/08 20:23:36;;;;;;;1.60;1.50;;;22.80;26.40;;;;;;10431051;28;20307;-72
2022/07/08 20:28:40;;;;;;;3.97;1.70;;;22.70;26.80;;;;;;10432898;28;20671;-72
2022/07/08 20:33:43;;;;;;;4.07;3.67;;;22.50;26.40;;;;;;10436955;28;20244;-72
2022/07/08 20:38:47;;;;;;;3.30;2.87;;;22.40;26.60;;;;;;10437500;28;20239;-72
2022/07/08 20:43:50;;;;;;;3.73;3.43;;;22.10;26.70;;;;;;10433352;28;20221;-72
2022/07/08 20:48:54;;;;;;;4.07;3.70;;;21.80;26.60;;;;;;10433801;28;20221;-72
2022/07/08 20:54:00;;;;;;;3.63;3.33;;;21.60;26.70;;;;;;10431022;28;20221;-72
2022/07/08 20:59:04;;;;;;;3.23;2.50;;;21.30;27.10;;;;;;10433025;28;20229;-72
2022/07/08 21:04:07;;;;;;;3.10;2.00;;;21.10;27.20;;;;;;10432939;28;20232;-72
2022/07/08 21:09:12;;;;;;;2.30;2.10;;;20.80;27.40;;;;;;10430237;28;20329;-72
2022/07/08 21:14:15;;;;;;;2.13;2.00;;;20.70;28.00;;;;;;10433090;28;20263;-72
2022/07/08 21:19:20;;;;;;;2.73;2.40;;;20.70;27.80;;;;;;10426890;28;20229;-72
2022/07/08 21:24:26;;;;;;;1.93;1.70;;;20.70;28.00;;;;;;10429361;28;21013;-71
2022/07/08 21:29:30;;;;;;;4.43;1.87;;;20.70;28.60;;;;;;10430398;28;20229;-72
2022/07/08 21:34:33;;;;;;;1.93;1.50;;;20.60;28.20;;;;;;10430837;28;20243;-72
2022/07/08 21:39:38;;;;;;;2.03;1.60;;;20.60;28.20;;;;;;10430903;28;20229;-72
2022/07/08 21:44:41;;;;;;;1.53;1.43;;;20.50;28.50;;;;;;10430053;28;20229;-72
2022/07/08 21:49:44;;;;;;;1.40;1.30;;;20.50;28.30;;;;;;10429480;28;20323;-72
2022/07/08 21:54:48;;;;;;;1.73;1.40;;;20.40;28.30;;;;;;10433008;28;20615;-71
2022/07/08 21:59:52;;;;;;;1.57;1.27;;;20.30;28.70;;;;;;10443151;28;20236;-72
2022/07/08 22:04:55;;;;;;;1.60;1.50;;;20.20;28.50;;;;;;10440490;28;20236;-72
2022/07/08 22:09:59;;;;;;;1.50;1.40;;;20.20;28.40;;;;;;10441689;28;20224;-72
2022/07/08 22:15:04;;;;;;;2.17;1.50;;;20.00;28.60;;;;;;10443773;28;20228;-72
2022/07/08 22:20:09;;;;;;;1.57;1.30;;;19.70;28.50;;;;;;10443757;28;20233;-72
2022/07/08 22:25:14;;;;;;;2.67;2.00;;;19.40;28.80;;;;;;10442722;28;20744;-72
2022/07/08 22:30:17;;;;;;;2.97;1.70;;;19.10;29.20;;;;;;10445718;28;20311;-72
2022/07/08 22:35:22;;;;;;;1.97;1.50;;;18.90;29.30;;;;;;10443012;28;20229;-72
2022/07/08 22:40:26;;;;;;;2.93;1.60;;;18.70;29.30;;;;;;10446262;28;20228;-72
2022/07/08 22:45:29;;;;;;;1.40;1.33;;;18.70;30.10;;;;;;10443595;28;20233;-72
2022/07/08 22:50:33;;;;;;;2.70;1.77;;;18.70;29.90;;;;;;10446600;28;20229;-72
2022/07/08 22:55:38;;;;;;;3.17;1.60;;;18.70;29.90;;;;;;10445282;28;20604;-72
2022/07/08 23:00:42;;;;;;;2.23;1.73;;;18.70;30.10;;;;;;10440810;28;20236;-72
2022/07/08 23:05:45;;;;;;;3.90;2.00;;;18.70;30.00;;;;;;10443572;28;20228;-77
2022/07/08 23:10:50;;;;;;;5.70;2.83;;;18.70;30.40;;;;;;10440375;28;20734;-78
2022/07/08 23:15:53;;;;;;;3.77;2.30;;;18.70;30.60;;;;;;10437628;28;20258;-77
2022/07/08 23:20:56;;;;;;;1.67;1.57;;;18.70;30.20;;;;;;10437447;28;20279;-78
2022/07/08 23:26:02;;;;;;;2.63;1.53;;;18.70;30.40;;;;;;10432728;28;20813;-77
2022/07/08 23:31:05;;;;;;;1.60;1.50;;;18.70;31.00;;;;;;10433698;28;20231;-77
2022/07/08 23:36:10;;;;;;;2.13;1.50;;;18.60;30.50;;;;;;10441826;28;20236;-78
2022/07/08 23:41:15;;;;;;;1.60;1.50;;;18.60;30.60;;;;;;10437298;28;20227;-78
2022/07/08 23:46:18;;;;;;;2.03;1.53;;;18.60;31.10;;;;;;10436648;28;20236;-78
2022/07/08 23:51:21;;;;;;;1.60;1.50;;;18.60;30.70;;;;;;10439220;28;20261;-77
2022/07/08 23:56:26;;;;;;;1.63;1.53;;;18.60;30.70;;;;;;10428813;28;20800;-77
